PASV/SVW METAR and TAF weather

Enter ICAO airport designator
Station Type Date Time Source
PASV METAR 2021/02/25 15:42 UTC NOAA

PASV 251542Z AUTO 27002KT 10SM -SHSN OVC008 M05/M05 A2966 RMK AO2 SLP075 $


Station Type Date Time Source
PASV Decoded METAR 2021/02/25 15:42 UTC NOAA

Sparrevohn Airways Facilities Sector, AK, United States (PASV) 61-06N 155-34W
Feb 25, 2021 - 10:42 AM EST / 2021.02.25 1542 UTC
Wind: from the W (270 degrees) at 2 MPH (2 KT):0
Visibility: 10 mile(s):0
Sky conditions: overcast
Weather: light snow showers
Temperature: 23 F (-5 C)
Dew Point: 23 F (-5 C)
Relative Humidity: 100%
Pressure (altimeter): 29.66 in. Hg (1004 hPa)
ob: PASV 251542Z AUTO 27002KT 10SM -SHSN OVC008 M05/M05 A2966 RMK AO2 SLP075
cycle: 15

Station Type Date Time Source
PASV TAF 2012/01/12 14:57 UTC NOAA

TAF
AMD PASV 1214/1320 33010G15KT 4800 -SN BLSN SCT003 SCT110 QNH2984INS
BECMG 1221/1222 VRB06KT 9999 NSW FEW010 SCT110 QNH3000INS LIMITED METWATCH TM25/1300Z TM37/1315Z
AMD 121453

Example: see airport list